Neshanic Station, New Jersey
Current Conditions -  °F | °C
As of 8:53 AM on Sunday 23 Nov 2014 (Local Time) from KSMQ Reporting Station
Overcast Overcast  
Wind Chill: 43°   Ceiling: 11000
Heat Index: 43°   Visibility: 10mi
Dew Point: 25°   Wind: 0mph
Humidity: 49%   Direction: NA
Pressure: 30.21"   Gusts: NA
Location:  40.51°N, 74.73°W
Report Text: KSMQ 231353Z AUTO 00000KT 10SM OVC110 06/M04 A3021 RMK AO2 SLP230 T00611039
Loading
Personal Weather Stations






























Interactive Weather Map New forecast layout! Learn more

10-Day Weather Forecast

Advertisements
Track Severe Weather on mobile